createdAt,value
2019-02-10T00:00:40.728Z,14.63
2019-02-10T00:03:09.150Z,19.63
2019-02-10T00:05:37.599Z,17.93
2019-02-10T00:08:06.098Z,25.07
2019-02-10T00:10:34.493Z,15.00
2019-02-10T00:13:28.239Z,23.60
2019-02-10T00:15:58.585Z,19.70
2019-02-10T00:18:27.064Z,12.93
2019-02-10T00:20:55.472Z,23.60
2019-02-10T00:23:23.865Z,28.13
2019-02-10T00:25:52.292Z,18.43
2019-02-10T00:28:20.776Z,21.37
2019-02-10T00:30:49.204Z,18.27
2019-02-10T00:33:17.565Z,25.77
2019-02-10T00:35:46.635Z,27.53
2019-02-10T00:38:15.037Z,16.60
2019-02-10T00:40:43.430Z,28.30
2019-02-10T00:43:11.854Z,24.97
2019-02-10T00:45:40.274Z,21.60
2019-02-10T00:48:08.675Z,20.53
2019-02-10T00:50:37.091Z,14.67
2019-02-10T00:53:05.511Z,29.20
2019-02-10T00:55:33.902Z,19.80
2019-02-10T00:58:02.314Z,17.97
2019-02-10T01:00:30.695Z,17.20
2019-02-10T01:02:59.200Z,17.10
2019-02-10T01:05:27.674Z,19.33
2019-02-10T01:07:56.137Z,19.97
2019-02-10T01:10:25.762Z,29.70
2019-02-10T01:12:54.420Z,18.47
2019-02-10T01:15:22.799Z,24.80
2019-02-10T01:17:51.309Z,13.10
2019-02-10T01:20:19.777Z,16.73
2019-02-10T01:22:48.276Z,21.10
2019-02-10T01:25:16.667Z,21.63
2019-02-10T01:27:45.144Z,16.30
2019-02-10T01:30:15.301Z,20.83
2019-02-10T01:32:43.843Z,13.13
2019-02-10T01:35:12.381Z,18.43
2019-02-10T01:37:40.785Z,23.43
2019-02-10T01:40:10.542Z,21.57
2019-02-10T01:42:39.078Z,14.77
2019-02-10T01:45:10.701Z,23.47
2019-02-10T01:47:39.106Z,24.97
2019-02-10T01:50:09.960Z,25.17
2019-02-10T01:52:38.423Z,16.40
2019-02-10T01:55:09.828Z,19.03
2019-02-10T01:57:38.221Z,17.80
2019-02-10T02:00:10.023Z,19.23
2019-02-10T02:02:38.435Z,18.70
2019-02-10T02:05:08.138Z,20.60
2019-02-10T02:07:36.549Z,17.13
2019-02-10T02:10:06.476Z,18.33
2019-02-10T02:12:34.906Z,18.57
2019-02-10T02:15:03.421Z,19.70
2019-02-10T02:17:31.811Z,16.90
2019-02-10T02:20:00.249Z,16.00
2019-02-10T02:22:28.714Z,19.30
2019-02-10T02:24:57.201Z,13.87
2019-02-10T02:27:25.603Z,23.37
2019-02-10T02:29:54.049Z,20.60
2019-02-10T02:32:22.464Z,13.90
2019-02-10T02:34:50.858Z,16.37
2019-02-10T02:37:19.280Z,22.13
2019-02-10T02:39:48.248Z,21.83
2019-02-10T02:42:16.655Z,15.30
2019-02-10T02:44:45.065Z,15.73
2019-02-10T02:47:13.478Z,21.47
2019-02-10T02:49:41.954Z,14.03
2019-02-10T02:52:10.372Z,22.63
2019-02-10T02:54:38.769Z,15.47
2019-02-10T02:57:07.174Z,19.90
2019-02-10T02:59:35.570Z,23.13
2019-02-10T03:02:03.983Z,18.20
2019-02-10T03:04:32.387Z,14.53
2019-02-10T03:07:00.805Z,23.70
2019-02-10T03:09:29.226Z,13.13
2019-02-10T03:11:57.689Z,22.20
2019-02-10T03:14:26.097Z,23.77
2019-02-10T03:16:54.489Z,20.73
2019-02-10T03:19:22.888Z,19.73
2019-02-10T03:21:51.380Z,20.43
2019-02-10T03:24:19.780Z,20.07
2019-02-10T03:26:48.188Z,16.87
2019-02-10T03:29:16.567Z,26.03
2019-02-10T03:31:44.987Z,19.33
2019-02-10T03:34:13.374Z,22.20
2019-02-10T03:36:41.781Z,15.90
2019-02-10T03:39:10.200Z,14.53
2019-02-10T03:41:38.664Z,21.50
2019-02-10T03:44:07.090Z,17.03
2019-02-10T03:46:35.479Z,19.90
2019-02-10T03:49:03.963Z,20.37
2019-02-10T03:51:32.360Z,21.37
2019-02-10T03:54:00.774Z,20.83
2019-02-10T03:56:29.162Z,15.63
2019-02-10T03:58:57.642Z,13.63
2019-02-10T04:01:26.038Z,16.87
2019-02-10T04:03:54.441Z,25.20
2019-02-10T04:06:22.846Z,14.87
2019-02-10T04:08:51.269Z,17.57
2019-02-10T04:11:19.686Z,18.53
2019-02-10T04:13:48.094Z,22.53
2019-02-10T04:16:16.505Z,26.83
2019-02-10T04:18:44.900Z,14.97
2019-02-10T04:21:13.305Z,24.33
2019-02-10T04:23:41.740Z,25.23
2019-02-10T04:26:10.134Z,13.00
2019-02-10T04:28:38.559Z,17.50
2019-02-10T04:31:06.963Z,17.90
2019-02-10T04:33:35.378Z,20.07
2019-02-10T04:36:03.782Z,18.70
2019-02-10T04:38:32.186Z,13.40
2019-02-10T04:41:00.594Z,12.50
2019-02-10T04:43:29.073Z,13.47
2019-02-10T04:45:57.495Z,10.53
2019-02-10T04:48:25.902Z,13.43
2019-02-10T04:50:54.325Z,16.23
2019-02-10T04:53:22.720Z,17.30
2019-02-10T04:56:11.314Z,15.13
2019-02-10T04:58:39.707Z,9.63
2019-02-10T05:01:08.122Z,10.40
2019-02-10T05:03:36.523Z,13.57
2019-02-10T05:06:04.997Z,11.10
2019-02-10T05:08:33.415Z,7.50
2019-02-10T05:11:01.809Z,13.80
2019-02-10T05:13:30.389Z,8.70
2019-02-10T05:15:58.789Z,9.23
2019-02-10T05:18:27.191Z,7.93
2019-02-10T05:20:55.587Z,9.80
2019-02-10T05:23:23.980Z,12.50
2019-02-10T05:25:52.407Z,6.33
2019-02-10T05:28:20.796Z,11.00
2019-02-10T05:30:49.225Z,11.67
2019-02-10T05:33:17.640Z,10.50
2019-02-10T05:35:46.051Z,12.30
2019-02-10T05:38:14.463Z,15.10
2019-02-10T05:40:42.874Z,5.07
2019-02-10T05:43:11.270Z,14.40
2019-02-10T05:45:39.684Z,9.80
2019-02-10T05:48:08.079Z,5.87
2019-02-10T05:50:36.468Z,5.50
2019-02-10T05:53:04.946Z,4.13
2019-02-10T05:55:33.342Z,7.80
2019-02-10T05:58:01.847Z,4.60
2019-02-10T06:00:30.496Z,11.40
2019-02-10T06:02:58.902Z,5.37
2019-02-10T06:05:27.371Z,9.50
2019-02-10T06:07:55.761Z,10.53
2019-02-10T06:10:24.249Z,4.73
2019-02-10T06:12:52.642Z,4.17
2019-02-10T06:15:21.116Z,6.70
2019-02-10T06:17:49.463Z,4.43
2019-02-10T06:20:17.852Z,5.10
2019-02-10T06:22:46.317Z,10.77
2019-02-10T06:25:14.739Z,5.50
2019-02-10T06:27:43.160Z,5.30
2019-02-10T06:30:11.691Z,8.00
2019-02-10T06:32:40.112Z,6.00
2019-02-10T06:35:09.439Z,4.60
2019-02-10T06:37:37.930Z,4.83
2019-02-10T06:40:08.065Z,3.90
2019-02-10T06:42:36.481Z,8.90
2019-02-10T06:45:07.743Z,4.17
2019-02-10T06:47:36.230Z,4.20
2019-02-10T06:50:05.387Z,3.30
2019-02-10T06:52:33.809Z,6.00
2019-02-10T06:55:02.210Z,9.03
2019-02-10T06:57:30.601Z,3.00
2019-02-10T07:00:03.441Z,5.67
2019-02-10T07:02:38.998Z,10.20
2019-02-10T07:05:10.435Z,8.43
2019-02-10T07:07:38.831Z,3.20
2019-02-10T07:10:08.016Z,4.23
2019-02-10T07:12:49.749Z,4.03
2019-02-10T07:15:37.546Z,5.50
2019-02-10T07:18:42.124Z,6.93
2019-02-10T07:21:10.551Z,5.17
2019-02-10T07:23:58.735Z,3.37
2019-02-10T07:26:33.074Z,3.63
2019-02-10T07:29:01.482Z,4.30
2019-02-10T07:31:29.962Z,3.10
2019-02-10T07:34:07.060Z,2.70
2019-02-10T07:36:38.511Z,3.97
2019-02-10T07:39:18.828Z,3.10
2019-02-10T07:42:17.336Z,1.80
2019-02-10T07:44:57.370Z,1.73
2019-02-10T07:47:31.584Z,1.70
2019-02-10T07:50:11.840Z,2.10
2019-02-10T07:52:52.400Z,2.80
2019-02-10T07:55:42.071Z,2.43
2019-02-10T07:58:33.203Z,2.80
2019-02-10T08:01:04.689Z,2.10
2019-02-10T08:03:42.148Z,2.37
2019-02-10T08:06:22.395Z,1.20
2019-02-10T08:08:53.853Z,1.87
2019-02-10T08:11:36.654Z,14.20
2019-02-10T08:14:20.161Z,2.30
2019-02-10T08:17:00.628Z,1.60
2019-02-10T08:19:38.198Z,1.70
2019-02-10T08:22:29.329Z,1.57
2019-02-10T08:25:00.783Z,5.60
2019-02-10T08:27:41.141Z,4.57
2019-02-10T08:30:30.635Z,2.30
2019-02-10T08:33:02.108Z,6.40
2019-02-10T08:35:36.081Z,21.90
2019-02-10T08:38:10.116Z,7.70
2019-02-10T08:40:47.443Z,1.93
2019-02-10T08:43:30.772Z,4.10
2019-02-10T08:46:17.172Z,2.03
2019-02-10T08:48:57.521Z,2.40
2019-02-10T08:51:38.005Z,1.73
2019-02-10T08:54:06.845Z,2.63
2019-02-10T08:56:36.633Z,2.20
2019-02-10T08:59:05.142Z,1.40
2019-02-10T09:01:33.553Z,2.93
2019-02-10T09:04:01.966Z,1.70
2019-02-10T09:06:30.362Z,3.67
2019-02-10T09:09:02.674Z,6.17
2019-02-10T09:11:28.881Z,3.43
2019-02-10T09:13:57.291Z,2.37
2019-02-10T09:16:25.689Z,3.80
2019-02-10T09:18:54.108Z,2.40
2019-02-10T09:21:22.533Z,1.80
2019-02-10T09:23:50.949Z,1.63
2019-02-10T09:26:19.378Z,4.00
2019-02-10T09:28:47.802Z,2.80
2019-02-10T09:31:16.199Z,1.40
2019-02-10T09:33:44.624Z,3.43
2019-02-10T09:36:13.109Z,2.93
2019-02-10T09:38:41.518Z,15.57
2019-02-10T09:41:09.933Z,8.33
2019-02-10T09:43:38.363Z,2.70
2019-02-10T09:46:06.817Z,2.83
2019-02-10T09:48:35.233Z,4.70
2019-02-10T09:51:03.644Z,1.73
2019-02-10T09:53:32.059Z,1.40
2019-02-10T09:56:00.461Z,3.30
2019-02-10T09:58:28.850Z,3.47
2019-02-10T10:00:57.345Z,3.50
2019-02-10T10:03:25.747Z,2.20
2019-02-10T10:05:54.161Z,6.13
2019-02-10T10:08:22.556Z,1.93
2019-02-10T10:10:50.978Z,2.27
2019-02-10T10:13:19.389Z,1.77
2019-02-10T10:15:47.781Z,2.40
2019-02-10T10:18:16.297Z,4.50
2019-02-10T10:20:44.801Z,2.40
2019-02-10T10:23:13.229Z,1.40
2019-02-10T10:25:41.628Z,4.57
2019-02-10T10:28:10.096Z,3.83
2019-02-10T10:30:38.522Z,2.03
2019-02-10T10:33:06.915Z,2.83
2019-02-10T10:35:35.324Z,5.77
2019-02-10T10:38:03.732Z,3.20
2019-02-10T10:40:32.155Z,4.57
2019-02-10T10:43:00.555Z,3.20
2019-02-10T10:45:29.058Z,5.10
2019-02-10T10:47:57.471Z,7.73
2019-02-10T10:50:25.886Z,3.20
2019-02-10T10:52:54.284Z,5.13
2019-02-10T10:55:22.682Z,5.40
2019-02-10T10:57:51.163Z,2.67
2019-02-10T11:00:19.663Z,4.23
2019-02-10T11:02:48.078Z,4.00
2019-02-10T11:05:16.561Z,4.60
2019-02-10T11:07:44.966Z,2.43
2019-02-10T11:10:13.837Z,4.90
2019-02-10T11:12:42.238Z,4.17
2019-02-10T11:15:15.552Z,2.20
2019-02-10T11:17:43.970Z,1.70
2019-02-10T11:20:12.916Z,7.30
2019-02-10T11:22:41.373Z,2.30
2019-02-10T11:25:11.809Z,2.20
2019-02-10T11:27:40.266Z,1.80
2019-02-10T11:30:11.801Z,3.27
2019-02-10T11:32:40.279Z,2.70
2019-02-10T11:35:09.352Z,1.30
2019-02-10T11:37:37.753Z,1.73
2019-02-10T11:40:08.824Z,1.20
2019-02-10T11:42:37.294Z,2.17
2019-02-10T11:45:13.394Z,2.10
2019-02-10T11:47:41.800Z,4.33
2019-02-10T11:50:12.461Z,2.90
2019-02-10T11:52:40.870Z,1.47
2019-02-10T11:55:10.334Z,1.77
2019-02-10T11:57:38.815Z,5.17
2019-02-10T12:00:17.567Z,1.20
2019-02-10T12:02:45.959Z,2.20
2019-02-10T12:05:14.501Z,1.40
2019-02-10T12:07:42.921Z,1.10
2019-02-10T12:10:14.683Z,2.93
2019-02-10T12:12:43.087Z,1.37
2019-02-10T12:15:13.336Z,3.10
2019-02-10T12:17:41.760Z,0.93
2019-02-10T12:20:12.006Z,1.70
2019-02-10T12:22:40.409Z,1.83
2019-02-10T12:25:10.345Z,1.87
2019-02-10T12:27:38.760Z,1.50
2019-02-10T12:30:14.796Z,1.50
2019-02-10T12:32:43.253Z,5.03
2019-02-10T12:35:14.906Z,1.20
2019-02-10T12:37:43.382Z,4.10
2019-02-10T12:40:12.545Z,1.90
2019-02-10T12:42:40.958Z,2.90
2019-02-10T12:45:11.286Z,1.53
2019-02-10T12:47:39.769Z,1.40
2019-02-10T12:50:15.104Z,1.33
2019-02-10T12:52:43.610Z,1.50
2019-02-10T12:55:12.852Z,3.37
2019-02-10T12:57:41.354Z,2.30
2019-02-10T13:00:17.333Z,5.23
2019-02-10T13:02:45.853Z,5.10
2019-02-10T13:05:14.443Z,1.37
2019-02-10T13:07:42.923Z,1.40
2019-02-10T13:10:13.076Z,3.07
2019-02-10T13:12:41.485Z,1.90
2019-02-10T13:15:11.137Z,5.90
2019-02-10T13:17:39.541Z,1.80
2019-02-10T13:20:12.964Z,2.13
2019-02-10T13:22:41.428Z,1.47
2019-02-10T13:25:11.945Z,1.00
2019-02-10T13:27:40.433Z,2.73
2019-02-10T13:30:19.172Z,2.60
2019-02-10T13:32:47.667Z,4.87
2019-02-10T13:35:16.128Z,2.07
2019-02-10T13:37:44.517Z,1.77
2019-02-10T13:40:20.620Z,1.30
2019-02-10T13:42:49.016Z,1.87
2019-02-10T13:45:17.499Z,1.40
2019-02-10T13:47:45.976Z,2.60
2019-02-10T13:50:18.953Z,2.20
2019-02-10T13:52:47.483Z,1.70
2019-02-10T13:55:16.938Z,3.07
2019-02-10T13:57:45.466Z,2.57
2019-02-10T14:00:21.150Z,1.87
2019-02-10T14:02:49.633Z,1.70
2019-02-10T14:05:18.104Z,2.60
2019-02-10T14:07:46.578Z,1.30
2019-02-10T14:10:16.126Z,2.80
2019-02-10T14:12:44.798Z,2.43
2019-02-10T14:15:15.232Z,2.33
2019-02-10T14:17:43.691Z,2.20
2019-02-10T14:20:17.054Z,1.10
2019-02-10T14:22:45.471Z,1.60
2019-02-10T14:25:14.006Z,1.20
2019-02-10T14:27:42.570Z,1.50
2019-02-10T14:30:13.856Z,1.50
2019-02-10T14:32:42.243Z,1.47
2019-02-10T14:35:10.834Z,3.93
2019-02-10T14:37:39.262Z,3.10
2019-02-10T14:40:08.222Z,2.77
2019-02-10T14:42:36.651Z,1.83
2019-02-10T14:45:08.604Z,2.47
2019-02-10T14:47:36.996Z,5.57
2019-02-10T14:50:14.240Z,1.57
2019-02-10T14:52:42.708Z,3.50
2019-02-10T14:55:11.259Z,1.57
2019-02-10T14:57:39.666Z,2.80
2019-02-10T15:00:11.315Z,2.90
2019-02-10T15:02:39.736Z,1.13
2019-02-10T15:05:08.598Z,4.10
2019-02-10T15:07:36.982Z,1.63
2019-02-10T15:10:11.932Z,1.10
2019-02-10T15:12:40.439Z,1.60
2019-02-10T15:15:10.662Z,1.40
2019-02-10T15:17:39.123Z,1.80
2019-02-10T15:20:09.627Z,1.40
2019-02-10T15:22:38.088Z,2.10
2019-02-10T15:25:09.458Z,1.70
2019-02-10T15:27:37.828Z,1.77
2019-02-10T15:30:09.259Z,1.00
2019-02-10T15:32:37.651Z,3.07
2019-02-10T15:35:07.059Z,1.63
2019-02-10T15:37:35.450Z,2.23
2019-02-10T15:40:05.124Z,1.77
2019-02-10T15:42:33.533Z,3.60
2019-02-10T15:45:01.939Z,4.07
2019-02-10T15:47:30.365Z,4.27
2019-02-10T15:49:58.779Z,1.10
2019-02-10T15:52:27.154Z,1.90
2019-02-10T15:54:55.591Z,2.70
2019-02-10T15:57:24.248Z,1.30
2019-02-10T15:59:52.667Z,3.40
2019-02-10T16:02:21.144Z,3.67
2019-02-10T16:04:49.584Z,2.03
2019-02-10T16:07:18.075Z,1.73
2019-02-10T16:09:46.481Z,2.30
2019-02-10T16:12:14.952Z,1.87
2019-02-10T16:14:43.419Z,4.40
2019-02-10T16:17:11.836Z,3.43
2019-02-10T16:19:40.269Z,1.70
2019-02-10T16:22:08.705Z,3.03
2019-02-10T16:24:37.119Z,2.37
2019-02-10T16:27:05.526Z,1.67
2019-02-10T16:29:33.919Z,1.50
2019-02-10T16:32:02.309Z,2.23
2019-02-10T16:34:30.731Z,3.53
2019-02-10T16:36:59.155Z,3.40
2019-02-10T16:39:27.549Z,14.20
2019-02-10T16:41:55.961Z,4.47
2019-02-10T16:44:24.396Z,2.30
2019-02-10T16:46:52.896Z,2.10
2019-02-10T16:49:21.296Z,4.47
2019-02-10T16:51:49.715Z,4.47
2019-02-10T16:54:18.111Z,4.03
2019-02-10T16:56:46.509Z,4.03
2019-02-10T16:59:15.023Z,4.30
2019-02-10T17:01:43.410Z,2.17
2019-02-10T17:04:11.847Z,5.17
2019-02-10T17:06:40.241Z,2.23
2019-02-10T17:09:08.704Z,2.00
2019-02-10T17:11:37.307Z,4.20
2019-02-10T17:14:05.721Z,2.83
2019-02-10T17:16:34.200Z,5.53
2019-02-10T17:19:02.604Z,4.63
2019-02-10T17:21:31.031Z,2.40
2019-02-10T17:23:59.425Z,2.63
2019-02-10T17:26:27.851Z,4.83
2019-02-10T17:28:56.424Z,5.37
2019-02-10T17:31:24.848Z,5.90
2019-02-10T17:33:53.277Z,5.80
2019-02-10T17:36:21.699Z,4.30
2019-02-10T17:38:50.119Z,3.10
2019-02-10T17:41:22.914Z,4.07
2019-02-10T17:43:50.716Z,4.03
2019-02-10T17:46:19.112Z,2.50
2019-02-10T17:48:47.540Z,4.23
2019-02-10T17:51:15.931Z,2.70
2019-02-10T17:53:44.408Z,2.53
2019-02-10T17:56:12.837Z,3.70
2019-02-10T17:58:41.345Z,4.93
2019-02-10T18:01:09.823Z,8.77
2019-02-10T18:03:38.256Z,24.57
2019-02-10T18:06:06.668Z,8.53
2019-02-10T18:08:35.208Z,2.93
2019-02-10T18:11:03.687Z,11.60
2019-02-10T18:13:32.120Z,5.37
2019-02-10T18:16:02.146Z,6.70
2019-02-10T18:18:45.431Z,5.67
2019-02-10T18:21:27.991Z,6.80
2019-02-10T18:24:03.973Z,4.57
2019-02-10T18:26:50.131Z,6.13
2019-02-10T18:29:20.183Z,4.13
2019-02-10T18:31:50.226Z,8.03
2019-02-10T18:34:32.166Z,4.90
2019-02-10T18:37:20.603Z,5.13
2019-02-10T18:40:08.720Z,6.77
2019-02-10T18:42:47.589Z,4.17
2019-02-10T18:45:23.588Z,3.40
2019-02-10T18:47:53.644Z,5.27
2019-02-10T18:50:32.892Z,4.43
2019-02-10T18:53:03.039Z,13.50
2019-02-10T18:55:41.968Z,5.30
2019-02-10T18:58:18.314Z,9.40
2019-02-10T19:00:54.052Z,4.93
2019-02-10T19:03:26.785Z,2.30
2019-02-10T19:06:02.579Z,2.47
2019-02-10T19:08:35.367Z,3.07
2019-02-10T19:11:08.332Z,4.87
2019-02-10T19:13:38.361Z,4.50
2019-02-10T19:16:08.513Z,4.50
2019-02-10T19:18:41.850Z,2.53
2019-02-10T19:21:11.918Z,2.43
2019-02-10T19:23:41.983Z,4.23
2019-02-10T19:26:27.107Z,2.20
2019-02-10T19:28:57.179Z,1.57
2019-02-10T19:31:43.522Z,9.83
2019-02-10T19:34:19.653Z,2.17
2019-02-10T19:37:01.853Z,2.57
2019-02-10T19:39:46.949Z,1.70
2019-02-10T19:42:20.051Z,2.00
2019-02-10T19:44:50.139Z,2.40
2019-02-10T19:47:20.187Z,2.27
2019-02-10T19:49:59.160Z,3.80
2019-02-10T19:52:44.569Z,2.17
2019-02-10T19:55:14.629Z,8.13
2019-02-10T19:58:00.883Z,7.83
2019-02-10T20:00:31.017Z,2.77
2019-02-10T20:03:01.128Z,2.20
2019-02-10T20:05:49.650Z,2.10
2019-02-10T20:08:25.584Z,2.03
2019-02-10T20:10:58.459Z,1.70
2019-02-10T20:13:28.612Z,2.60
2019-02-10T20:16:01.596Z,12.83
2019-02-10T20:18:48.153Z,2.37
2019-02-10T20:21:29.831Z,16.53
2019-02-10T20:24:02.550Z,3.10
2019-02-10T20:26:32.585Z,3.00
2019-02-10T20:29:05.626Z,8.90
2019-02-10T20:31:35.708Z,43.13
2019-02-10T20:34:05.793Z,11.60
2019-02-10T20:36:47.537Z,18.80
2019-02-10T20:39:17.579Z,1.87
2019-02-10T20:42:03.003Z,38.57
2019-02-10T20:44:49.560Z,21.50
2019-02-10T20:47:28.620Z,5.57
2019-02-10T20:50:01.867Z,19.83
2019-02-10T20:52:34.855Z,7.90
2019-02-10T20:55:05.064Z,2.30
2019-02-10T20:57:37.890Z,51.77
2019-02-10T21:00:16.457Z,14.07
2019-02-10T21:02:46.533Z,4.13
2019-02-10T21:05:16.606Z,13.20
2019-02-10T21:07:55.597Z,21.77
2019-02-10T21:10:31.443Z,5.10
2019-02-10T21:13:04.500Z,38.77
2019-02-10T21:15:34.543Z,25.30
2019-02-10T21:18:20.952Z,2.83
2019-02-10T21:20:51.603Z,2.83
2019-02-10T21:23:21.653Z,2.30
2019-02-10T21:25:53.016Z,1.57
2019-02-10T21:28:28.613Z,2.00
2019-02-10T21:31:13.456Z,5.47
2019-02-10T21:34:02.593Z,2.50
2019-02-10T21:36:41.711Z,4.20
2019-02-10T21:39:27.739Z,5.00
2019-02-10T21:42:08.792Z,1.93
2019-02-10T21:44:44.170Z,1.33
2019-02-10T21:47:17.070Z,2.70
2019-02-10T21:49:45.490Z,1.50
2019-02-10T21:52:13.859Z,1.17
2019-02-10T21:54:42.272Z,1.00
2019-02-10T21:57:10.659Z,1.53
2019-02-10T21:59:39.074Z,1.50
2019-02-10T22:02:07.477Z,1.30
2019-02-10T22:04:35.890Z,1.43
2019-02-10T22:07:04.452Z,1.20
2019-02-10T22:09:32.885Z,1.13
2019-02-10T22:12:01.281Z,1.73
2019-02-10T22:14:29.705Z,1.27
2019-02-10T22:16:58.092Z,1.20
2019-02-10T22:19:26.480Z,1.73
2019-02-10T22:21:54.908Z,1.20
2019-02-10T22:24:23.302Z,1.30
2019-02-10T22:26:51.704Z,2.90
2019-02-10T22:29:20.118Z,1.50
2019-02-10T22:31:48.592Z,1.40
2019-02-10T22:34:16.989Z,1.30
2019-02-10T22:36:45.400Z,1.93
2019-02-10T22:39:13.804Z,2.40
2019-02-10T22:41:42.194Z,2.50
2019-02-10T22:44:10.601Z,1.70
2019-02-10T22:46:39.081Z,2.43
2019-02-10T22:49:07.515Z,1.47
2019-02-10T22:51:35.912Z,1.87
2019-02-10T22:54:04.327Z,1.77
2019-02-10T22:56:32.749Z,2.70
2019-02-10T22:59:01.171Z,2.17
2019-02-10T23:01:30.015Z,1.40
2019-02-10T23:03:58.437Z,1.93
2019-02-10T23:06:26.952Z,1.70
2019-02-10T23:08:55.393Z,2.20
2019-02-10T23:11:23.776Z,1.67
2019-02-10T23:13:52.162Z,2.03
2019-02-10T23:16:20.587Z,1.53
2019-02-10T23:18:48.996Z,2.27
2019-02-10T23:21:17.406Z,11.60
2019-02-10T23:23:45.833Z,1.20
2019-02-10T23:26:14.237Z,2.37
2019-02-10T23:28:42.639Z,3.40
2019-02-10T23:31:11.043Z,5.83
2019-02-10T23:33:39.436Z,1.70
2019-02-10T23:36:07.892Z,3.93
2019-02-10T23:38:36.330Z,3.23
2019-02-10T23:41:04.724Z,2.90
2019-02-10T23:43:33.119Z,2.00
2019-02-10T23:46:01.541Z,2.43
2019-02-10T23:48:29.965Z,2.70
2019-02-10T23:50:58.374Z,1.63
2019-02-10T23:53:26.776Z,1.53
2019-02-10T23:55:55.257Z,1.43
2019-02-10T23:58:23.753Z,1.97
